Time;durP1;ratioP1;P1;durP2;ratioP2;P2;SDS_P1;SDS_P2;PMS_P1;PMS_P2;Temp;Humidity;BMP_temperature;BMP_pressure;BME280_temperature;BME280_humidity;BME280_pressure;Samples;Min_cycle;Max_cycle;Signal;HPM_P1;HPM_P2
2022/10/13 00:01:25;;;;;;;93.60;74.10;;;;;;;5.91;69.81;101347.52;108415;1280;21943;-77
2022/10/13 00:03:54;;;;;;;100.80;77.50;;;;;;;5.92;69.88;101348.89;108195;1286;21959;-78
2022/10/13 00:06:25;;;;;;;99.30;76.40;;;;;;;5.93;69.95;101347.17;108146;1286;21987;-78
2022/10/13 00:08:55;;;;;;;100.80;77.70;;;;;;;5.95;69.92;101348.90;108176;1286;21942;-77
2022/10/13 00:11:29;;;;;;;98.10;76.40;;;;;;;5.98;69.81;101350.96;107705;1292;23717;-78
2022/10/13 00:14:02;;;;;;;101.30;77.80;;;;;;;6.01;69.82;101355.27;107648;1290;23598;-77
2022/10/13 00:16:34;;;;;;;99.90;76.90;;;;;;;6.04;69.90;101355.10;107572;1294;22020;-78
2022/10/13 00:19:03;;;;;;;96.90;75.20;;;;;;;6.06;69.84;101351.63;107636;1292;22099;-79
2022/10/13 00:21:32;;;;;;;95.10;76.80;;;;;;;6.07;69.58;101353.38;107786;1286;24398;-79
2022/10/13 00:24:01;;;;;;;89.40;71.80;;;;;;;6.08;69.65;101353.53;108171;1286;22025;-79
2022/10/13 00:26:29;;;;;;;97.50;74.90;;;;;;;6.09;69.59;101349.92;107727;1290;22013;-79
2022/10/13 00:28:58;;;;;;;89.10;69.60;;;;;;;6.10;69.45;101348.17;107871;1286;22132;-79
2022/10/13 00:31:30;;;;;;;85.30;69.20;;;;;;;6.11;69.42;101348.52;107908;1286;21977;-77
2022/10/13 00:34:00;;;;;;;;;;;;;;;6.10;69.42;101346.10;108013;1286;23105;-77
2022/10/13 00:36:29;;;;;;;80.90;64.60;;;;;;;5.99;69.58;101340.60;108219;1286;21952;-77
2022/10/13 00:38:58;;;;;;;83.70;64.60;;;;;;;5.97;69.66;101339.56;107729;1286;21946;-77
2022/10/13 00:41:27;;;;;;;81.20;66.30;;;;;;;5.96;69.59;101339.23;108005;1286;22442;-77
2022/10/13 00:44:21;;;;;;;77.90;63.20;;;;;;;5.96;69.59;101336.11;108069;1280;21936;-79
2022/10/13 00:46:50;;;;;;;72.90;62.10;;;;;;;5.94;69.62;101336.62;108621;1280;23676;-78
2022/10/13 00:49:19;;;;;;;76.20;60.00;;;;;;;5.92;69.53;101332.13;108212;1283;23095;-77
2022/10/13 00:51:50;;;;;;;76.30;59.00;;;;;;;5.92;69.70;101327.30;108225;1280;21937;-77
2022/10/13 00:54:23;;;;;;;79.50;59.70;;;;;;;5.94;69.61;101328.50;108475;1280;21945;-78
2022/10/13 00:56:53;;;;;;;77.30;60.30;;;;;;;5.93;69.62;101327.30;108437;1280;21996;-78
2022/10/13 00:59:28;;;;;;;71.80;56.40;;;;;;;5.92;69.51;101321.27;108372;1280;21945;-77
2022/10/13 01:01:58;;;;;;;74.00;56.60;;;;;;;5.92;69.61;101319.35;108428;1280;21996;-78
2022/10/13 01:04:36;;;;;;;64.30;51.60;;;;;;;5.93;69.63;101316.23;108373;1280;22945;-77
2022/10/13 01:07:05;;;;;;;74.70;56.90;;;;;;;5.93;69.68;101313.83;108329;1280;21947;-77
2022/10/13 01:09:37;;;;;;;72.90;54.40;;;;;;;5.95;69.60;101311.22;108505;1281;22347;-77
2022/10/13 01:12:49;;;;;;;62.50;50.50;;;;;;;5.94;69.32;101309.50;108111;1283;21964;-77
2022/10/13 01:15:31;;;;;;;68.30;48.90;;;;;;;5.90;69.49;101305.54;108432;1280;21942;-77
2022/10/13 01:18:33;;;;;;;66.90;51.30;;;;;;;5.90;69.65;101300.36;108382;1280;21944;-77
2022/10/13 01:21:32;;;;;;;66.80;50.90;;;;;;;5.89;69.55;101298.45;108585;1280;23012;-77
2022/10/13 01:24:14;;;;;;;66.40;51.90;;;;;;;5.88;69.58;101297.59;108173;1281;23056;-77
2022/10/13 01:27:09;;;;;;;;;;;;;;;5.86;69.45;101296.56;108237;1283;22790;-76
2022/10/13 01:30:12;;;;;;;66.00;47.50;;;;;;;5.76;69.72;101301.61;108385;1280;22804;-77
2022/10/13 01:32:44;;;;;;;;;;;;;;;5.75;69.81;101300.40;107914;1286;22097;-78
2022/10/13 01:35:57;;;;;;;63.10;45.90;;;;;;;5.69;70.01;101296.27;107898;1286;21951;-77
2022/10/13 01:38:39;;;;;;;63.10;50.80;;;;;;;5.70;69.84;101292.98;107863;1281;23102;-77
2022/10/13 01:41:43;;;;;;;71.30;49.60;;;;;;;5.70;69.63;101282.63;107937;1286;21949;-78
2022/10/13 01:44:44;;;;;;;59.80;45.80;;;;;;;5.70;69.73;101280.03;107882;1286;22633;-78
2022/10/13 01:47:15;;;;;;;62.70;48.50;;;;;;;5.71;69.69;101279.67;107890;1286;21943;-77
2022/10/13 01:49:45;;;;;;;63.60;48.10;;;;;;;5.73;69.57;101275.36;107897;1288;23060;-77
2022/10/13 01:52:19;;;;;;;67.70;48.10;;;;;;;5.73;69.47;101272.25;108382;1280;23066;-77
2022/10/13 01:54:53;;;;;;;61.80;45.10;;;;;;;5.70;69.38;101270.88;108387;1280;23580;-77
2022/10/13 01:57:44;;;;;;;62.40;47.00;;;;;;;5.68;69.38;101266.90;108586;1280;23074;-78
2022/10/13 02:00:17;;;;;;;56.90;45.00;;;;;;;5.67;69.41;101268.46;108383;1280;21950;-78
2022/10/13 02:03:12;;;;;;;59.00;47.10;;;;;;;5.64;69.38;101268.11;108491;1280;21952;-78
2022/10/13 02:05:52;;;;;;;56.30;45.40;;;;;;;5.63;69.51;101271.41;108379;1267;23058;-78
2022/10/13 02:08:32;;;;;;;52.80;44.60;;;;;;;5.63;69.53;101268.30;108482;1280;21944;-79
2022/10/13 02:11:17;;;;;;;64.60;45.90;;;;;;;5.63;69.56;101261.73;108480;1280;22994;-79
2022/10/13 02:13:58;;;;;;;59.20;46.20;;;;;;;5.63;69.55;101260.88;108597;1281;22055;-79
2022/10/13 02:16:32;;;;;;;;;;;;;;;5.62;69.42;101256.56;108443;1282;24462;-78
2022/10/13 02:19:05;;;;;;;62.60;45.70;;;;;;;5.52;69.48;101254.34;108653;1266;23051;-77
2022/10/13 02:21:34;;;;;;;66.90;48.20;;;;;;;5.47;69.40;101253.50;108454;1269;21950;-78
2022/10/13 02:24:05;;;;;;;56.60;45.50;;;;;;;5.46;69.53;101254.52;108617;1280;22751;-77
2022/10/13 02:26:35;;;;;;;61.80;46.00;;;;;;;5.45;69.53;101253.32;108349;1283;21929;-78
2022/10/13 02:29:14;;;;;;;;;;;;;;;5.45;69.56;101250.05;108526;1283;21921;-78
2022/10/13 02:31:45;;;;;;;61.20;47.10;;;;;;;5.35;69.72;101245.23;108584;1280;23868;-78
2022/10/13 02:34:14;;;;;;;58.10;45.00;;;;;;;5.34;69.81;101240.57;108372;1283;21927;-77
2022/10/13 02:36:47;;;;;;;54.10;42.50;;;;;;;5.35;69.78;101244.20;108235;1281;23673;-76
2022/10/13 02:39:16;;;;;;;54.20;41.50;;;;;;;5.31;69.63;101242.83;108355;1280;21941;-77
2022/10/13 02:41:45;;;;;;;52.40;42.10;;;;;;;5.30;69.80;101239.02;108543;1278;21937;-77
2022/10/13 02:44:14;;;;;;;105.20;71.90;;;;;;;5.31;70.02;101240.92;108628;1280;22031;-76
2022/10/13 02:46:43;;;;;;;108.60;67.90;;;;;;;5.32;69.98;101240.06;108206;1281;21933;-77
2022/10/13 02:49:11;;;;;;;124.50;76.70;;;;;;;5.32;69.91;101237.83;108140;1286;22055;-76
2022/10/13 02:51:40;;;;;;;77.80;56.00;;;;;;;5.31;69.73;101237.31;107606;1289;23704;-78
2022/10/13 02:54:09;;;;;;;81.80;58.20;;;;;;;5.27;69.53;101236.11;107837;1289;21960;-77
2022/10/13 02:56:38;;;;;;;90.30;58.90;;;;;;;5.21;69.46;101236.29;107599;1293;21944;-78
2022/10/13 02:59:06;;;;;;;98.90;62.70;;;;;;;5.17;69.58;101232.66;107753;1289;23097;-77
2022/10/13 03:01:40;;;;;;;86.00;57.80;;;;;;;5.16;69.62;101232.67;107547;1289;23614;-77
2022/10/13 03:04:09;;;;;;;92.60;62.10;;;;;;;5.14;69.63;101233.02;107707;1289;22205;-78
2022/10/13 03:06:38;;;;;;;83.00;56.20;;;;;;;5.13;69.65;101233.19;107810;1286;21978;-78
2022/10/13 03:09:08;;;;;;;103.40;67.50;;;;;;;5.11;69.84;101232.67;107964;1284;21955;-77
2022/10/13 03:11:37;;;;;;;160.10;92.10;;;;;;;5.10;69.81;101236.65;108534;1281;25006;-78
2022/10/13 03:14:06;;;;;;;126.40;79.40;;;;;;;5.08;69.72;101241.64;108309;1283;22727;-77
2022/10/13 03:16:35;;;;;;;132.30;86.80;;;;;;;5.07;69.86;101239.41;108327;1283;21940;-81
2022/10/13 03:19:04;;;;;;;98.90;71.60;;;;;;;5.06;69.85;101240.61;108203;1281;21973;-78
2022/10/13 03:21:32;;;;;;;76.40;58.10;;;;;;;5.06;70.02;101240.10;108360;1283;23589;-78
2022/10/13 03:24:01;;;;;;;72.80;55.60;;;;;;;5.05;70.03;101235.79;108123;1286;21961;-77
2022/10/13 03:26:31;;;;;;;69.20;56.20;;;;;;;5.02;70.02;101239.93;107918;1289;24299;-76
2022/10/13 03:29:00;;;;;;;64.00;48.20;;;;;;;4.99;70.12;101238.88;107787;1289;21935;-78
2022/10/13 03:31:29;;;;;;;56.80;47.20;;;;;;;4.98;70.15;101236.65;108170;1286;22010;-77
2022/10/13 03:34:02;;;;;;;66.10;48.60;;;;;;;4.97;70.16;101237.16;107802;1286;23604;-78
2022/10/13 03:36:31;;;;;;;63.70;47.10;;;;;;;4.96;70.14;101240.80;107827;1286;22821;-78
2022/10/13 03:39:00;;;;;;;70.90;49.10;;;;;;;4.93;70.14;101244.42;108120;1287;21959;-78
2022/10/13 03:41:28;;;;;;;57.90;46.10;;;;;;;4.92;70.31;101241.48;107993;1283;22207;-78
2022/10/13 03:43:57;;;;;;;70.90;51.30;;;;;;;4.93;70.45;101240.45;108156;1285;21945;-79
2022/10/13 03:46:28;;;;;;;55.10;44.30;;;;;;;4.91;70.34;101237.52;107966;1288;21974;-78
2022/10/13 03:48:58;;;;;;;58.60;47.60;;;;;;;4.87;70.28;101235.80;108464;1286;23076;-78
2022/10/13 03:51:26;;;;;;;64.70;52.70;;;;;;;4.86;70.42;101238.56;108006;1286;23660;-78
2022/10/13 03:53:55;;;;;;;64.30;47.40;;;;;;;4.87;70.47;101241.67;107983;1287;22000;-78
2022/10/13 03:56:26;;;;;;;59.80;43.00;;;;;;;4.89;70.63;101239.59;108182;1286;23645;-77
2022/10/13 03:58:57;;;;;;;90.10;66.70;;;;;;;4.88;70.68;101236.31;107823;1289;21942;-78
2022/10/13 04:01:29;;;;;;;101.00;70.50;;;;;;;4.88;70.58;101235.11;108137;1285;22056;-77
2022/10/13 04:04:01;;;;;;;75.80;58.60;;;;;;;4.83;70.41;101230.80;108163;1283;22382;-79
2022/10/13 04:06:33;;;;;;;75.10;54.00;;;;;;;4.78;70.45;101232.00;108407;1283;22716;-77
2022/10/13 04:09:02;;;;;;;158.80;106.40;;;;;;;4.76;70.57;101230.45;108441;1270;21960;-77
2022/10/13 04:11:31;;;;;;;102.40;73.60;;;;;;;4.75;70.65;101230.10;108253;1280;23055;-77
2022/10/13 04:14:00;;;;;;;82.80;58.50;;;;;;;4.73;70.73;101232.69;108367;1283;21924;-77
2022/10/13 04:16:32;;;;;;;77.00;56.80;;;;;;;4.69;70.62;101236.48;108464;1285;21948;-78
2022/10/13 04:19:05;;;;;;;75.30;57.30;;;;;;;4.64;70.66;101240.10;108504;1282;23586;-77
2022/10/13 04:21:34;;;;;;;75.90;55.30;;;;;;;4.60;70.59;101238.55;108382;1281;21933;-77
2022/10/13 04:24:04;;;;;;;69.70;53.70;;;;;;;4.57;70.60;101235.25;108411;1283;21985;-77
2022/10/13 04:26:35;;;;;;;64.40;50.20;;;;;;;4.55;70.74;101233.19;108536;1283;22454;-77
2022/10/13 04:29:09;;;;;;;76.10;54.50;;;;;;;4.55;70.82;101235.95;108679;1283;21953;-77
2022/10/13 04:31:41;;;;;;;70.10;54.90;;;;;;;4.54;70.85;101232.16;108279;1285;23689;-78
2022/10/13 04:34:11;;;;;;;88.90;67.50;;;;;;;4.48;70.57;101231.63;108233;1283;21943;-77
2022/10/13 04:36:39;;;;;;;168.30;104.80;;;;;;;4.38;70.53;101231.95;108503;1280;21932;-76
2022/10/13 04:39:08;;;;;;;90.70;67.60;;;;;;;4.31;70.53;101232.98;108457;1280;23733;-76
2022/10/13 04:41:37;;;;;;;69.00;49.60;;;;;;;4.26;70.66;101232.63;108162;1281;21936;-76
2022/10/13 04:44:05;;;;;;;64.00;47.10;;;;;;;4.19;70.56;101232.79;108334;1282;23142;-76
2022/10/13 04:46:34;;;;;;;71.90;50.10;;;;;;;4.07;70.67;101233.09;108229;1283;22716;-77
2022/10/13 04:49:03;;;;;;;80.20;57.60;;;;;;;3.99;70.78;101227.05;108447;1284;21939;-77
2022/10/13 04:51:33;;;;;;;81.10;59.50;;;;;;;3.96;71.07;101224.45;108591;1284;21960;-77
2022/10/13 04:54:04;;;;;;;76.00;54.30;;;;;;;3.94;71.15;101225.30;108218;1280;21995;-76
2022/10/13 04:56:33;;;;;;;85.60;59.00;;;;;;;3.89;71.23;101224.25;108285;1283;24372;-75
2022/10/13 04:59:07;;;;;;;93.40;62.30;;;;;;;3.86;71.46;101221.31;108037;1285;21949;-75
2022/10/13 05:01:37;;;;;;;85.60;64.20;;;;;;;3.87;71.49;101217.36;107835;1289;21955;-76
2022/10/13 05:04:09;;;;;;;87.30;62.70;;;;;;;3.83;71.39;101211.30;108091;1285;21974;-75
2022/10/13 05:06:41;;;;;;;81.30;56.00;;;;;;;3.75;71.28;101207.33;108080;1277;23182;-76
2022/10/13 05:09:29;;;;;;;71.90;53.40;;;;;;;3.67;71.54;101212.97;107652;1285;21944;-76
2022/10/13 05:11:58;;;;;;;77.70;53.00;;;;;;;3.63;71.64;101217.60;107985;1287;22004;-76
2022/10/13 05:14:27;;;;;;;65.60;47.50;;;;;;;3.62;71.76;101220.17;107897;1289;23067;-77
2022/10/13 05:16:55;;;;;;;57.90;45.80;;;;;;;3.61;71.85;101221.04;108243;1274;23600;-77
2022/10/13 05:19:24;;;;;;;110.90;93.70;;;;;;;3.59;71.95;101223.77;108323;1281;23587;-76
2022/10/13 05:21:56;;;;;;;84.90;59.90;;;;;;;3.58;72.10;101226.70;108264;1280;23634;-75
2022/10/13 05:24:35;;;;;;;59.20;47.20;;;;;;;3.58;72.27;101227.89;108445;1284;21948;-76
2022/10/13 05:27:12;;;;;;;57.00;45.60;;;;;;;3.59;72.32;101230.14;108185;1283;21938;-76
2022/10/13 05:29:41;;;;;;;70.50;50.30;;;;;;;3.58;72.29;101227.39;108177;1283;22276;-76
2022/10/13 05:32:09;;;;;;;65.40;45.10;;;;;;;3.57;72.31;101223.26;107900;1287;22291;-77
2022/10/13 05:34:38;;;;;;;61.20;43.60;;;;;;;3.56;72.46;101221.19;108072;1286;21936;-76
2022/10/13 05:37:07;;;;;;;66.70;47.50;;;;;;;3.56;72.49;101220.84;108284;1284;22216;-76
2022/10/13 05:39:35;;;;;;;81.30;56.50;;;;;;;3.57;72.54;101219.81;108005;1285;22090;-75
2022/10/13 05:42:04;;;;;;;62.20;47.30;;;;;;;3.59;72.69;101217.92;107708;1285;21962;-76
2022/10/13 05:44:35;;;;;;;66.60;47.00;;;;;;;3.62;72.81;101217.25;107814;1283;23727;-75
2022/10/13 05:47:10;;;;;;;55.30;45.80;;;;;;;3.61;72.72;101216.55;108068;1285;23019;-75
2022/10/13 05:49:42;;;;;;;57.20;46.30;;;;;;;3.59;72.76;101219.98;108408;1283;22392;-76
2022/10/13 05:52:11;;;;;;;57.50;48.70;;;;;;;3.59;72.94;101220.69;108626;1282;22074;-77
2022/10/13 05:54:47;;;;;;;60.10;44.30;;;;;;;3.62;73.30;101224.30;108805;1281;23056;-77
2022/10/13 05:57:29;;;;;;;52.90;43.30;;;;;;;3.71;73.52;101224.52;108462;1282;23084;-73
2022/10/13 06:00:10;;;;;;;49.80;39.50;;;;;;;3.81;73.43;101223.01;109133;1278;21899;-74
2022/10/13 06:02:51;;;;;;;51.90;38.90;;;;;;;3.86;73.35;101221.65;108079;1281;22900;-74
2022/10/13 06:05:25;;;;;;;61.00;46.70;;;;;;;3.91;73.47;101218.58;108271;1281;21939;-73
2022/10/13 06:07:55;;;;;;;62.80;46.20;;;;;;;3.98;73.59;101217.22;108175;1281;22070;-74
2022/10/13 06:10:25;;;;;;;137.30;75.60;;;;;;;4.03;73.50;101211.20;108280;1280;22281;-74
2022/10/13 06:12:54;;;;;;;117.70;66.40;;;;;;;4.11;73.60;101206.92;108265;1281;21953;-75
2022/10/13 06:15:22;;;;;;;73.00;47.70;;;;;;;4.21;73.71;101210.04;108223;1281;21991;-73
2022/10/13 06:17:57;;;;;;;79.10;51.00;;;;;;;4.27;73.54;101210.23;108285;1280;23593;-74
2022/10/13 06:20:27;;;;;;;74.10;51.00;;;;;;;4.33;73.48;101209.03;108282;1280;21981;-74
2022/10/13 06:22:56;;;;;;;80.60;52.10;;;;;;;4.40;73.49;101208.52;108315;1267;23714;-73
2022/10/13 06:25:26;;;;;;;69.80;50.90;;;;;;;4.46;73.37;101207.00;108748;1282;22995;-74
2022/10/13 06:27:59;;;;;;;240.30;168.30;;;;;;;4.52;73.53;101203.71;108425;1280;23514;-73
2022/10/13 06:30:28;;;;;;;237.80;113.50;;;;;;;4.61;73.50;101202.17;108294;1281;24362;-74
2022/10/13 06:33:00;;;;;;;90.10;57.60;;;;;;;4.71;73.56;101203.90;108767;1282;21979;-74
2022/10/13 06:35:29;;;;;;;92.20;58.70;;;;;;;4.81;73.58;101194.24;108456;1280;22417;-73
2022/10/13 06:37:57;;;;;;;64.40;44.80;;;;;;;4.89;73.47;101193.54;108320;1283;22010;-75
2022/10/13 06:40:26;;;;;;;79.10;49.90;;;;;;;4.96;73.42;101194.57;108402;1269;23626;-74
2022/10/13 06:42:55;;;;;;;58.80;43.10;;;;;;;5.04;73.38;101199.55;108135;1283;23836;-74
2022/10/13 06:45:24;;;;;;;59.50;41.40;;;;;;;5.13;73.45;101198.17;108447;1283;21954;-73
2022/10/13 06:47:54;;;;;;;50.30;38.40;;;;;;;5.23;73.49;101192.11;108271;1280;23090;-74
2022/10/13 06:50:23;;;;;;;59.30;41.50;;;;;;;5.35;73.55;101190.52;109114;1280;21924;-73
2022/10/13 06:52:55;;;;;;;69.00;48.90;;;;;;;5.50;73.68;101185.30;109412;1280;22075;-72
2022/10/13 06:55:26;;;;;;;76.60;51.90;;;;;;;5.68;73.78;101182.45;109123;1283;21938;-74
2022/10/13 06:57:55;;;;;;;71.20;46.30;;;;;;;5.88;73.80;101179.77;108397;1283;23659;-74
2022/10/13 07:00:24;;;;;;;59.90;42.40;;;;;;;6.08;73.72;101179.34;108429;1280;21935;-74
2022/10/13 07:03:05;;;;;;;54.00;39.40;;;;;;;6.29;73.68;101181.64;108712;1280;22393;-73
2022/10/13 07:05:33;;;;;;;64.70;41.30;;;;;;;6.50;73.52;101180.97;108350;1280;22759;-73
2022/10/13 07:08:02;;;;;;;48.60;33.70;;;;;;;6.70;73.30;101176.47;108182;1280;21942;-74
2022/10/13 07:10:31;;;;;;;45.40;33.20;;;;;;;6.94;73.28;101178.86;108402;1279;22725;-74
2022/10/13 07:13:00;;;;;;;56.20;38.90;;;;;;;7.23;73.06;101179.95;108312;1273;22709;-75
2022/10/13 07:15:29;;;;;;;51.50;34.60;;;;;;;7.59;73.04;101175.90;108201;1280;22022;-75
2022/10/13 07:17:58;;;;;;;53.10;31.30;;;;;;;8.00;72.90;101171.90;108040;1279;21957;-75
2022/10/13 07:20:28;;;;;;;46.70;30.20;;;;;;;8.45;72.75;101165.02;108303;1280;22017;-74
2022/10/13 07:22:57;;;;;;;48.70;29.90;;;;;;;8.92;72.12;101166.48;108319;1279;21948;-74
2022/10/13 07:25:25;;;;;;;44.70;28.60;;;;;;;9.33;71.10;101160.85;108318;1280;21958;-74
2022/10/13 07:27:54;;;;;;;39.60;25.20;;;;;;;9.64;69.38;101155.35;108042;1281;21942;-73
2022/10/13 07:30:23;;;;;;;34.40;23.80;;;;;;;9.95;68.48;101160.24;108315;1280;21938;-75
2022/10/13 07:32:53;;;;;;;37.30;27.90;;;;;;;10.29;67.19;101160.88;108414;1280;21963;-77
2022/10/13 07:35:24;;;;;;;52.00;41.60;;;;;;;10.63;65.97;101160.59;108109;1281;23751;-75
2022/10/13 07:37:58;;;;;;;32.60;23.20;;;;;;;10.92;64.39;101156.36;108080;1283;21976;-74
2022/10/13 07:40:27;;;;;;;32.40;22.40;;;;;;;11.12;63.72;101154.63;108229;1281;21938;-74
2022/10/13 07:42:56;;;;;;;28.40;21.50;;;;;;;11.35;62.85;101152.58;108150;1280;22280;-76
2022/10/13 07:45:25;;;;;;;27.90;19.60;;;;;;;11.59;62.20;101154.86;108019;1281;22411;-74
2022/10/13 07:47:55;;;;;;;24.80;17.90;;;;;;;11.75;60.28;101153.52;108210;1280;21942;-74
2022/10/13 07:50:24;;;;;;;30.10;18.80;;;;;;;11.87;59.73;101146.55;108167;1283;21980;-75
2022/10/13 07:52:53;;;;;;;28.60;18.40;;;;;;;12.01;58.70;101143.15;108284;1280;22010;-74
2022/10/13 07:55:22;;;;;;;24.00;17.00;;;;;;;12.11;57.95;101139.91;108063;1283;23690;-74
2022/10/13 07:57:53;;;;;;;;;;;;;;;12.20;57.88;101137.87;108252;1281;23027;-74
2022/10/13 08:00:23;;;;;;;22.80;16.30;;;;;;;12.26;57.68;101134.00;108861;1279;22570;-75
2022/10/13 08:02:52;;;;;;;25.30;17.70;;;;;;;12.38;57.19;101128.21;108825;1280;21938;-73
2022/10/13 08:05:21;;;;;;;27.20;18.80;;;;;;;12.52;56.64;101130.02;108145;1280;23621;-74
2022/10/13 08:07:50;;;;;;;23.90;17.00;;;;;;;12.63;56.39;101129.80;108374;1277;23067;-75
2022/10/13 08:10:25;;;;;;;31.00;16.00;;;;;;;12.78;55.96;101128.80;108157;1283;23678;-74
2022/10/13 08:12:54;;;;;;;26.90;16.70;;;;;;;12.87;55.80;101125.48;108127;1283;23084;-74
2022/10/13 08:15:23;;;;;;;29.60;17.30;;;;;;;12.99;55.52;101123.67;108127;1281;21962;-75
2022/10/13 08:17:52;;;;;;;24.70;16.90;;;;;;;13.16;55.68;101124.48;108107;1281;22191;-75
2022/10/13 08:20:28;;;;;;;24.60;15.40;;;;;;;13.34;55.22;101124.20;108075;1281;22720;-76
2022/10/13 08:23:24;;;;;;;25.60;18.10;;;;;;;13.39;54.23;101118.07;108362;1280;22007;-75
2022/10/13 08:25:58;;;;;;;25.70;15.10;;;;;;;13.39;53.82;101117.54;108267;1280;21980;-74
2022/10/13 08:28:35;;;;;;;26.20;16.90;;;;;;;13.44;53.99;101114.02;108362;1280;22358;-75
2022/10/13 08:31:07;;;;;;;25.30;16.60;;;;;;;13.59;54.19;101112.41;108256;1272;23747;-75
2022/10/13 08:33:39;;;;;;;23.20;16.40;;;;;;;13.74;53.94;101109.20;107540;1277;968555;-74
2022/10/13 08:36:15;;;;;;;26.10;15.00;;;;;;;13.89;54.00;101106.00;108114;1283;23679;-73
2022/10/13 08:38:52;;;;;;;21.70;15.30;;;;;;;14.05;53.06;101107.64;107743;1285;23645;-74
2022/10/13 08:41:30;;;;;;;22.20;15.30;;;;;;;14.10;52.72;101101.66;107685;1288;21954;-75
2022/10/13 08:44:09;;;;;;;22.30;13.70;;;;;;;14.08;52.18;101100.52;107763;1283;23692;-74
2022/10/13 08:47:11;;;;;;;21.80;14.60;;;;;;;14.04;51.90;101099.46;107948;1283;21941;-75
2022/10/13 08:49:45;;;;;;;24.00;14.40;;;;;;;13.94;51.34;101093.39;107975;1283;21962;-75
2022/10/13 08:52:22;;;;;;;18.10;13.50;;;;;;;13.82;51.20;101088.80;107825;1283;21941;-75
2022/10/13 08:54:57;;;;;;;20.80;13.40;;;;;;;13.69;51.30;101086.69;107759;1286;22476;-76
2022/10/13 08:57:42;;;;;;;22.10;13.60;;;;;;;13.59;51.52;101081.48;108257;1280;23609;-74
2022/10/13 09:00:13;;;;;;;23.80;13.70;;;;;;;13.57;51.55;101078.39;108319;1275;21928;-72
2022/10/13 09:02:45;;;;;;;18.70;12.60;;;;;;;13.52;51.52;101078.40;108397;1280;23688;-73
2022/10/13 09:05:43;;;;;;;20.40;12.90;;;;;;;13.55;51.93;101079.55;108095;1281;22113;-74
2022/10/13 09:08:19;;;;;;;20.60;12.70;;;;;;;13.52;51.76;101079.45;108110;1278;23592;-74
2022/10/13 09:10:50;;;;;;;18.90;11.90;;;;;;;13.53;51.83;101079.95;108155;1281;21989;-74
2022/10/13 09:13:20;;;;;;;23.90;13.30;;;;;;;13.57;51.48;101081.03;107908;1284;22673;-75
2022/10/13 09:15:52;;;;;;;20.90;12.70;;;;;;;13.62;51.74;101078.20;107821;1284;23484;-75
2022/10/13 09:18:29;;;;;;;21.20;13.10;;;;;;;13.68;51.49;101075.16;107963;1283;22724;-74
2022/10/13 09:21:14;;;;;;;18.70;12.10;;;;;;;13.67;51.13;101071.00;108114;1283;23763;-74
2022/10/13 09:23:47;;;;;;;19.30;10.80;;;;;;;13.66;51.12;101070.73;107959;1281;21962;-76
2022/10/13 09:26:24;;;;;;;15.10;10.10;;;;;;;13.67;51.14;101072.40;108048;1283;21957;-75
2022/10/13 09:28:53;;;;;;;18.40;9.90;;;;;;;13.76;51.20;101074.33;108039;1284;21944;-74
2022/10/13 09:31:29;;;;;;;16.90;11.10;;;;;;;13.87;51.07;101073.89;107927;1280;21936;-75
2022/10/13 09:34:23;;;;;;;17.90;10.90;;;;;;;13.99;50.83;101071.84;108482;1279;21948;-75
2022/10/13 09:37:05;;;;;;;16.30;10.30;;;;;;;14.15;50.74;101068.57;108134;1280;22819;-74
2022/10/13 09:39:35;;;;;;;16.30;9.70;;;;;;;14.36;50.06;101067.19;108224;1281;22456;-75
2022/10/13 09:42:25;;;;;;;16.70;9.10;;;;;;;14.51;49.48;101063.91;108110;1281;23084;-73
2022/10/13 09:45:19;;;;;;;;;;;;;;;14.63;49.25;101065.72;108115;1280;21930;-73
2022/10/13 09:47:54;;;;;;;;;;;;;;;14.76;49.23;101064.44;108081;1283;22662;-74
2022/10/13 09:50:29;;;;;;;18.00;11.30;;;;;;;14.93;49.30;101060.02;107837;1286;23691;-77
2022/10/13 09:53:23;;;;;;;13.50;10.00;;;;;;;15.21;48.75;101057.36;107788;1286;21948;-74
2022/10/13 09:56:17;;;;;;;16.70;8.40;;;;;;;15.43;48.21;101058.09;107999;1284;23028;-75
2022/10/13 09:59:29;;;;;;;19.20;10.40;;;;;;;15.60;47.33;101055.52;107976;1284;22103;-75
2022/10/13 10:02:18;;;;;;;16.30;9.80;;;;;;;15.66;47.01;101048.41;107518;1290;21947;-75
2022/10/13 10:04:59;;;;;;;22.90;13.40;;;;;;;15.79;47.56;101047.79;107413;1289;23680;-75
2022/10/13 10:07:32;;;;;;;20.60;12.50;;;;;;;15.99;47.03;101046.48;107724;1286;21942;-75
2022/10/13 10:10:17;;;;;;;19.80;12.70;;;;;;;16.10;46.81;101046.14;107696;1286;23611;-76
2022/10/13 10:12:46;;;;;;;16.70;10.80;;;;;;;16.19;46.59;101042.16;107826;1286;21949;-76
2022/10/13 10:15:25;;;;;;;17.10;9.80;;;;;;;16.28;46.38;101041.16;107950;1286;21951;-76
2022/10/13 10:18:04;;;;;;;15.20;9.70;;;;;;;16.34;46.25;101040.86;107720;1285;21937;-75
2022/10/13 10:20:47;;;;;;;17.30;10.60;;;;;;;16.35;46.08;101038.88;107861;1280;23629;-74
2022/10/13 10:23:35;;;;;;;19.80;10.10;;;;;;;16.38;46.08;101036.43;108298;1281;21936;-75
2022/10/13 10:26:15;;;;;;;15.60;9.20;;;;;;;16.46;46.08;101036.20;108155;1279;21953;-76
2022/10/13 10:29:18;;;;;;;15.20;10.10;;;;;;;16.52;45.69;101028.36;108125;1280;23006;-76
2022/10/13 10:32:10;;;;;;;15.20;9.80;;;;;;;16.58;45.41;101027.35;108106;1280;23614;-75
2022/10/13 10:35:00;;;;;;;16.40;14.10;;;;;;;16.67;45.30;101028.09;108232;1280;21960;-74
2022/10/13 10:37:47;;;;;;;15.70;10.20;;;;;;;16.64;44.64;101024.54;108356;1278;22609;-74
2022/10/13 10:40:31;;;;;;;15.40;8.90;;;;;;;16.69;45.18;101021.84;108323;1280;23848;-77
2022/10/13 10:43:48;;;;;;;13.90;9.90;;;;;;;16.79;45.19;101017.27;108270;1280;21957;-75
2022/10/13 10:46:33;;;;;;;13.70;10.10;;;;;;;16.95;45.03;101016.45;108153;1274;23768;-74
2022/10/13 10:49:18;;;;;;;15.20;9.90;;;;;;;17.05;44.25;101014.85;107720;1285;21965;-75
2022/10/13 10:51:49;;;;;;;14.00;8.70;;;;;;;17.09;44.04;101007.77;107834;1286;21958;-75
2022/10/13 10:54:50;;;;;;;16.30;9.10;;;;;;;17.14;43.84;101006.11;107702;1286;22762;-76
2022/10/13 10:57:32;;;;;;;15.00;10.30;;;;;;;17.12;43.58;101002.16;107886;1284;21955;-76
2022/10/13 11:00:21;;;;;;;14.90;9.20;;;;;;;17.14;43.51;100999.56;107932;1286;23706;-78
2022/10/13 11:03:34;;;;;;;12.30;8.50;;;;;;;17.13;43.27;100991.90;107742;1285;21945;-77
2022/10/13 11:06:41;;;;;;;18.50;9.50;;;;;;;17.03;43.18;100989.82;107677;1283;21967;-77
2022/10/13 11:09:39;;;;;;;15.70;9.00;;;;;;;16.89;43.21;100994.99;108113;1273;22462;-76
2022/10/13 11:12:50;;;;;;;12.60;8.80;;;;;;;16.63;43.59;100987.01;107748;1286;21965;-75
2022/10/13 11:15:32;;;;;;;13.50;8.40;;;;;;;16.45;43.77;100980.60;108031;1281;21980;-76
2022/10/13 11:18:54;;;;;;;15.30;8.60;;;;;;;16.24;44.09;100974.85;107482;1289;22256;-76
2022/10/13 11:21:25;;;;;;;13.90;8.60;;;;;;;16.13;44.52;100972.05;107603;1288;23274;-75
2022/10/13 11:24:02;;;;;;;13.10;7.30;;;;;;;16.04;44.34;100963.54;107489;1287;21953;-76
2022/10/13 11:26:52;;;;;;;13.10;9.10;;;;;;;15.94;44.56;100962.67;107459;1288;22029;-75
2022/10/13 11:29:50;;;;;;;17.50;9.10;;;;;;;15.89;44.83;100958.85;107528;1289;23083;-76
2022/10/13 11:35:28;;;;;;;11.60;7.40;;;;;;;15.82;44.98;100950.09;107814;1285;21959;-76
2022/10/13 11:37:59;;;;;;;14.20;8.40;;;;;;;15.71;44.94;100946.23;108313;1275;22267;-75
2022/10/13 11:40:55;;;;;;;13.40;8.90;;;;;;;15.66;45.17;100944.18;108384;1280;21928;-74
2022/10/13 11:43:33;;;;;;;13.80;9.30;;;;;;;15.62;45.22;100944.02;108264;1278;23097;-76
2022/10/13 11:46:21;;;;;;;12.30;9.00;;;;;;;15.51;45.25;100937.20;108411;1278;23110;-75
2022/10/13 11:49:33;;;;;;;13.30;10.30;;;;;;;15.40;45.54;100930.73;108238;1280;23171;-76
2022/10/13 11:52:18;;;;;;;11.20;7.70;;;;;;;15.34;45.88;100922.08;108374;1278;21943;-75